createdAt,value
2023-04-19T00:01:59.126Z,7.70
2023-04-19T00:04:27.754Z,6.50
2023-04-19T00:06:56.944Z,6.70
2023-04-19T00:09:25.097Z,6.20
2023-04-19T00:11:53.257Z,6.00
2023-04-19T00:14:21.773Z,6.20
2023-04-19T00:16:49.856Z,5.40
2023-04-19T00:19:18.092Z,5.60
2023-04-19T00:21:46.304Z,4.80
2023-04-19T00:24:14.630Z,5.70
2023-04-19T00:26:43.021Z,4.60
2023-04-19T00:29:11.250Z,5.20
2023-04-19T00:31:40.129Z,4.60
2023-04-19T00:34:08.334Z,4.30
2023-04-19T00:36:36.577Z,4.20
2023-04-19T00:39:04.757Z,4.60
2023-04-19T00:41:32.757Z,4.50
2023-04-19T00:44:00.825Z,4.10
2023-04-19T00:46:29.189Z,3.70
2023-04-19T00:48:57.463Z,4.00
2023-04-19T00:51:27.386Z,3.90
2023-04-19T00:53:55.738Z,4.00
2023-04-19T00:56:24.280Z,4.20
2023-04-19T00:58:54.384Z,4.30
2023-04-19T01:01:22.774Z,4.50
2023-04-19T01:03:51.130Z,4.60
2023-04-19T01:06:22.180Z,4.80
2023-04-19T01:08:50.535Z,4.40
2023-04-19T01:11:18.565Z,5.10
2023-04-19T01:13:46.801Z,4.50
2023-04-19T01:16:15.402Z,4.70
2023-04-19T01:18:43.889Z,4.80
2023-04-19T01:21:12.861Z,4.40
2023-04-19T01:23:41.115Z,4.20
2023-04-19T01:26:09.242Z,4.50
2023-04-19T01:28:37.793Z,4.20
2023-04-19T01:31:06.884Z,5.00
2023-04-19T01:33:35.090Z,4.50
2023-04-19T01:36:03.358Z,4.70
2023-04-19T01:38:31.673Z,4.50
2023-04-19T01:40:59.705Z,5.00
2023-04-19T01:43:28.055Z,4.30
2023-04-19T01:45:58.155Z,4.60
2023-04-19T01:48:26.912Z,4.10
2023-04-19T01:50:54.932Z,4.20
2023-04-19T01:53:23.371Z,4.70
2023-04-19T01:55:51.618Z,4.30
2023-04-19T01:58:21.826Z,4.70
2023-04-19T02:00:49.908Z,4.60
2023-04-19T02:03:18.501Z,4.50
2023-04-19T02:05:47.136Z,4.80
2023-04-19T02:08:15.267Z,5.10
2023-04-19T02:10:43.302Z,4.80
2023-04-19T02:13:11.532Z,4.50
2023-04-19T02:15:39.883Z,4.80
2023-04-19T02:18:08.328Z,5.10
2023-04-19T02:20:36.550Z,3.90
2023-04-19T02:23:05.230Z,4.40
2023-04-19T02:25:33.447Z,4.30
2023-04-19T02:28:01.676Z,4.00
2023-04-19T02:30:30.473Z,3.60
2023-04-19T02:32:58.978Z,4.30
2023-04-19T02:35:27.122Z,4.20
2023-04-19T02:37:55.410Z,3.90
2023-04-19T02:40:23.910Z,3.80
2023-04-19T02:42:52.665Z,4.50
2023-04-19T02:45:22.541Z,3.70
2023-04-19T02:47:50.726Z,4.60
2023-04-19T02:50:18.950Z,4.20
2023-04-19T02:52:49.964Z,3.90
2023-04-19T02:55:19.110Z,4.20
2023-04-19T02:57:47.873Z,4.60
2023-04-19T03:00:16.973Z,4.10
2023-04-19T03:02:52.082Z,4.70
2023-04-19T03:05:20.544Z,3.90
2023-04-19T03:07:48.688Z,4.70
2023-04-19T03:10:16.868Z,4.50
2023-04-19T03:12:45.004Z,4.30
2023-04-19T03:15:13.052Z,4.70
2023-04-19T03:17:41.256Z,4.80
2023-04-19T03:20:11.803Z,4.70
2023-04-19T03:22:40.136Z,4.60
2023-04-19T03:25:09.032Z,4.20
2023-04-19T03:27:37.949Z,5.40
2023-04-19T03:30:10.270Z,4.30
2023-04-19T03:32:38.468Z,4.40
2023-04-19T03:35:07.987Z,4.10
2023-04-19T03:37:36.740Z,4.10
2023-04-19T03:40:06.014Z,4.40
2023-04-19T03:42:34.880Z,3.80
2023-04-19T03:45:11.743Z,4.10
2023-04-19T03:47:43.025Z,4.30
2023-04-19T03:50:11.487Z,4.60
2023-04-19T03:52:40.379Z,5.00
2023-04-19T03:55:09.924Z,4.40
2023-04-19T03:57:40.444Z,3.90
2023-04-19T04:00:18.237Z,4.30
2023-04-19T04:02:50.183Z,4.10
2023-04-19T04:05:18.744Z,4.00
2023-04-19T04:07:47.249Z,4.60
2023-04-19T04:10:15.528Z,4.00
2023-04-19T04:12:44.566Z,4.20
2023-04-19T04:15:15.771Z,4.90
2023-04-19T04:17:48.356Z,4.60
2023-04-19T04:20:16.972Z,4.70
2023-04-19T04:22:46.752Z,4.60
2023-04-19T04:25:16.458Z,4.50
2023-04-19T04:27:44.963Z,5.30
2023-04-19T04:30:16.246Z,6.50
2023-04-19T04:32:47.060Z,5.00
2023-04-19T04:35:16.092Z,4.60
2023-04-19T04:37:49.867Z,4.40
2023-04-19T04:40:18.531Z,4.90
2023-04-19T04:42:46.707Z,6.50
2023-04-19T04:45:18.540Z,5.50
2023-04-19T04:47:47.460Z,4.50
2023-04-19T04:50:15.951Z,4.60
2023-04-19T04:52:44.637Z,4.20
2023-04-19T04:55:26.030Z,4.60
2023-04-19T04:57:54.384Z,4.20
2023-04-19T05:00:28.247Z,4.50
2023-04-19T05:03:02.445Z,4.80
2023-04-19T05:05:31.653Z,4.00
2023-04-19T05:07:59.803Z,4.70
2023-04-19T05:10:28.214Z,4.50
2023-04-19T05:12:56.685Z,4.50
2023-04-19T05:15:25.079Z,4.90
2023-04-19T05:17:55.300Z,4.70
2023-04-19T05:20:23.516Z,5.00
2023-04-19T05:23:00.791Z,4.60
2023-04-19T05:25:29.326Z,4.50
2023-04-19T05:27:58.320Z,4.30
2023-04-19T05:30:27.279Z,5.00
2023-04-19T05:32:55.804Z,4.10
2023-04-19T05:35:24.041Z,3.90
2023-04-19T05:37:52.683Z,4.80
2023-04-19T05:40:20.932Z,4.60
2023-04-19T05:42:49.180Z,5.00
2023-04-19T05:45:19.054Z,6.20
2023-04-19T05:47:47.733Z,7.00
2023-04-19T05:53:19.407Z,8.40
2023-04-19T05:55:49.541Z,7.60
2023-04-19T05:58:18.781Z,7.30
2023-04-19T06:00:46.903Z,6.20
2023-04-19T06:03:15.662Z,6.90
2023-04-19T06:05:44.817Z,7.30
2023-04-19T06:08:17.072Z,7.70
2023-04-19T06:10:54.564Z,8.90
2023-04-19T06:13:23.835Z,7.80
2023-04-19T06:15:52.198Z,9.60
2023-04-19T06:18:20.542Z,7.50
2023-04-19T06:20:48.810Z,8.90
2023-04-19T06:23:18.635Z,10.60
2023-04-19T06:25:49.002Z,10.50
2023-04-19T06:28:17.312Z,12.00
2023-04-19T06:30:45.887Z,10.60
2023-04-19T06:33:13.975Z,10.60
2023-04-19T06:35:42.132Z,11.30
2023-04-19T06:38:10.260Z,8.40
2023-04-19T06:40:38.336Z,9.60
2023-04-19T06:43:06.752Z,7.40
2023-04-19T06:45:34.914Z,7.10
2023-04-19T06:48:03.083Z,6.20
2023-04-19T06:50:31.787Z,4.60
2023-04-19T06:53:00.104Z,4.20
2023-04-19T06:55:28.550Z,4.70
2023-04-19T06:57:56.607Z,4.20
2023-04-19T07:00:24.929Z,4.90
2023-04-19T07:02:53.141Z,4.70
2023-04-19T07:05:21.615Z,4.60
2023-04-19T07:07:49.981Z,5.50
2023-04-19T07:10:18.032Z,4.30
2023-04-19T07:12:46.198Z,4.90
2023-04-19T07:15:14.809Z,4.70
2023-04-19T07:17:43.185Z,4.50
2023-04-19T07:20:12.106Z,4.50
2023-04-19T07:22:40.287Z,4.40
2023-04-19T07:25:11.800Z,4.50
2023-04-19T07:27:40.199Z,4.50
2023-04-19T07:30:08.957Z,4.80
2023-04-19T07:32:38.388Z,4.30
2023-04-19T07:35:07.653Z,4.40
2023-04-19T07:37:37.144Z,3.40
2023-04-19T07:40:06.463Z,3.60
2023-04-19T07:42:34.614Z,4.70
2023-04-19T07:45:03.240Z,4.80
2023-04-19T07:47:31.618Z,5.30
2023-04-19T07:49:59.892Z,5.40
2023-04-19T07:52:28.764Z,4.60
2023-04-19T07:54:57.096Z,4.70
2023-04-19T07:57:25.150Z,5.00
2023-04-19T07:59:58.016Z,4.20
2023-04-19T08:02:28.044Z,4.60
2023-04-19T08:04:58.035Z,4.60
2023-04-19T08:07:26.504Z,4.20
2023-04-19T08:09:55.829Z,4.10
2023-04-19T08:12:35.155Z,4.00
2023-04-19T08:15:17.981Z,3.70
2023-04-19T08:20:18.025Z,10.10
2023-04-19T08:22:45.988Z,4.30
2023-04-19T08:25:14.026Z,3.70
2023-04-19T08:27:42.114Z,3.80
2023-04-19T08:30:11.365Z,3.30
2023-04-19T08:32:39.511Z,3.60
2023-04-19T08:35:08.448Z,3.30
2023-04-19T08:37:36.629Z,3.80
2023-04-19T08:40:05.775Z,2.90
2023-04-19T08:42:37.093Z,3.80
2023-04-19T08:47:51.973Z,3.70
2023-04-19T08:50:33.260Z,4.70
2023-04-19T08:53:20.945Z,3.40
2023-04-19T08:56:14.704Z,3.60
2023-04-19T09:04:00.364Z,4.40
2023-04-19T09:06:36.731Z,3.20
2023-04-19T09:11:49.706Z,4.20
2023-04-19T09:14:19.442Z,4.40
2023-04-19T09:16:47.727Z,2.90
2023-04-19T09:19:23.928Z,3.70
2023-04-19T09:21:54.817Z,3.80
2023-04-19T09:27:12.558Z,3.50
2023-04-19T09:29:40.770Z,3.70
2023-04-19T09:32:08.811Z,3.00
2023-04-19T09:34:36.847Z,4.20
2023-04-19T09:37:24.990Z,3.40
2023-04-19T09:40:21.953Z,4.50
2023-04-19T09:45:30.022Z,4.10
2023-04-19T09:48:04.508Z,3.70
2023-04-19T09:50:42.372Z,3.70
2023-04-19T09:53:19.891Z,4.60
2023-04-19T10:03:22.778Z,3.80
2023-04-19T10:05:51.084Z,5.30
2023-04-19T10:08:19.187Z,3.70
2023-04-19T10:10:47.366Z,4.00
2023-04-19T10:13:20.547Z,3.40
2023-04-19T10:15:53.819Z,4.50
2023-04-19T10:18:25.272Z,5.40
2023-04-19T10:21:00.176Z,3.70
2023-04-19T10:23:29.286Z,4.20
2023-04-19T10:25:58.163Z,4.60
2023-04-19T10:28:30.067Z,4.90
2023-04-19T10:31:02.936Z,4.60
2023-04-19T10:33:36.200Z,4.60
2023-04-19T10:36:04.923Z,5.00
2023-04-19T10:38:49.295Z,4.90
2023-04-19T10:41:21.883Z,4.40
2023-04-19T10:43:55.584Z,3.70
2023-04-19T10:46:29.071Z,5.30
2023-04-19T10:51:55.374Z,5.40
2023-04-19T10:54:37.748Z,4.60
2023-04-19T10:57:10.302Z,5.30
2023-04-19T10:59:40.753Z,5.70
2023-04-19T11:02:28.435Z,4.60
2023-04-19T11:04:56.693Z,4.90
2023-04-19T11:07:24.897Z,4.20
2023-04-19T11:09:52.990Z,4.80
2023-04-19T11:12:21.722Z,4.90
2023-04-19T11:14:58.955Z,6.00
2023-04-19T11:17:32.119Z,6.10
2023-04-19T11:22:36.356Z,5.10
2023-04-19T11:25:18.541Z,5.90
2023-04-19T11:27:51.261Z,5.40
2023-04-19T11:30:22.710Z,5.10
2023-04-19T11:32:55.730Z,4.40
2023-04-19T11:35:24.986Z,5.00
2023-04-19T11:37:53.261Z,4.50
2023-04-19T11:40:23.387Z,4.20
2023-04-19T11:43:02.200Z,5.00
2023-04-19T11:45:38.175Z,4.40
2023-04-19T11:50:36.146Z,6.10
2023-04-19T11:53:24.224Z,5.80
2023-04-19T11:55:57.659Z,5.90
2023-04-19T11:58:39.993Z,5.20
2023-04-19T12:01:09.052Z,6.40
2023-04-19T12:03:51.244Z,6.10
2023-04-19T12:06:22.877Z,6.90
2023-04-19T12:08:52.346Z,6.70
2023-04-19T12:11:26.663Z,6.70
2023-04-19T12:14:11.093Z,8.90
2023-04-19T12:16:39.386Z,6.60
2023-04-19T12:19:20.443Z,5.80
2023-04-19T12:21:48.752Z,4.10
2023-04-19T12:24:17.234Z,5.80
2023-04-19T12:27:02.054Z,6.30
2023-04-19T12:29:32.939Z,5.60
2023-04-19T12:32:01.771Z,5.60
2023-04-19T12:34:30.280Z,6.10
2023-04-19T12:36:58.630Z,5.20
2023-04-19T12:39:26.803Z,5.90
2023-04-19T12:41:54.955Z,6.10
2023-04-19T12:44:23.380Z,5.50
2023-04-19T12:46:51.512Z,6.40
2023-04-19T12:49:22.516Z,12.50
2023-04-19T12:51:50.781Z,5.80
2023-04-19T12:54:19.080Z,7.60
2023-04-19T12:56:47.182Z,5.90
2023-04-19T12:59:15.589Z,6.00
2023-04-19T13:01:44.039Z,5.60
2023-04-19T13:04:12.476Z,5.30
2023-04-19T13:06:42.083Z,5.30
2023-04-19T13:11:41.291Z,6.80
2023-04-19T13:14:09.690Z,7.10
2023-04-19T13:16:38.433Z,7.00
2023-04-19T13:19:06.573Z,6.50
2023-04-19T13:21:35.251Z,5.90
2023-04-19T13:24:03.266Z,6.70
2023-04-19T13:26:31.630Z,8.10
2023-04-19T13:29:00.381Z,7.80
2023-04-19T13:31:28.528Z,5.30
2023-04-19T13:33:56.976Z,7.30
2023-04-19T13:36:25.030Z,7.50
2023-04-19T13:38:53.270Z,7.10
2023-04-19T13:41:21.559Z,7.90
2023-04-19T13:43:49.742Z,7.90
2023-04-19T13:46:17.804Z,7.60
2023-04-19T13:48:46.088Z,7.30
2023-04-19T13:51:14.082Z,7.40
2023-04-19T13:53:42.325Z,7.30
2023-04-19T13:56:11.117Z,7.30
2023-04-19T13:58:44.862Z,6.80
2023-04-19T14:01:14.691Z,9.10
2023-04-19T14:03:44.985Z,7.50
2023-04-19T14:06:13.269Z,7.30
2023-04-19T14:08:41.735Z,7.70
2023-04-19T14:11:09.713Z,8.00
2023-04-19T14:13:38.080Z,7.50
2023-04-19T14:16:06.793Z,6.90
2023-04-19T14:18:34.901Z,8.20
2023-04-19T14:21:03.160Z,6.00
2023-04-19T14:23:31.502Z,6.80
2023-04-19T14:25:59.605Z,6.60
2023-04-19T14:28:27.668Z,6.50
2023-04-19T14:30:55.751Z,6.00
2023-04-19T14:33:24.201Z,8.20
2023-04-19T14:35:52.256Z,7.00
2023-04-19T14:38:20.632Z,7.20
2023-04-19T14:40:48.940Z,7.20
2023-04-19T14:43:17.188Z,6.90
2023-04-19T14:45:50.000Z,6.80
2023-04-19T14:48:21.929Z,7.80
2023-04-19T14:50:51.173Z,6.40
2023-04-19T14:53:19.231Z,7.80
2023-04-19T14:55:47.377Z,7.40
2023-04-19T14:58:15.788Z,7.00
2023-04-19T15:00:44.782Z,5.90
2023-04-19T15:03:12.960Z,6.40
2023-04-19T15:05:41.651Z,6.80
2023-04-19T15:08:23.392Z,7.40
2023-04-19T15:10:51.836Z,6.60
2023-04-19T15:13:19.896Z,6.60
2023-04-19T15:15:48.006Z,6.30
2023-04-19T15:18:17.167Z,6.80
2023-04-19T15:20:45.333Z,6.20
2023-04-19T15:23:13.343Z,6.50
2023-04-19T15:25:41.698Z,6.10
2023-04-19T15:28:09.886Z,7.30
2023-04-19T15:30:38.385Z,8.10
2023-04-19T15:33:07.251Z,6.00
2023-04-19T15:35:36.446Z,5.60
2023-04-19T15:38:04.734Z,6.00
2023-04-19T15:40:33.823Z,5.80
2023-04-19T15:43:02.105Z,5.40
2023-04-19T15:45:31.025Z,5.50
2023-04-19T15:47:59.156Z,6.30
2023-04-19T15:50:27.674Z,6.30
2023-04-19T15:52:55.911Z,6.70
2023-04-19T15:55:23.941Z,5.50
2023-04-19T15:57:51.932Z,4.60
2023-04-19T16:00:21.375Z,5.90
2023-04-19T16:02:49.559Z,5.90
2023-04-19T16:05:17.775Z,6.20
2023-04-19T16:07:46.005Z,6.60
2023-04-19T16:10:14.101Z,4.60
2023-04-19T16:12:43.713Z,6.30
2023-04-19T16:15:11.896Z,7.20
2023-04-19T16:17:40.065Z,6.30
2023-04-19T16:20:09.026Z,5.40
2023-04-19T16:22:37.456Z,6.70
2023-04-19T16:25:06.733Z,5.40
2023-04-19T16:27:35.325Z,5.40
2023-04-19T16:30:03.969Z,5.60
2023-04-19T16:32:32.608Z,5.30
2023-04-19T16:35:00.893Z,5.20
2023-04-19T16:37:30.461Z,6.20
2023-04-19T16:39:59.350Z,8.10
2023-04-19T16:42:27.483Z,10.00
2023-04-19T16:44:55.766Z,17.40
2023-04-19T16:47:24.172Z,12.20
2023-04-19T16:49:53.080Z,9.30
2023-04-19T16:52:22.644Z,7.20
2023-04-19T16:54:50.727Z,6.80
2023-04-19T16:57:18.865Z,6.90
2023-04-19T16:59:47.234Z,13.10
2023-04-19T17:02:15.745Z,15.20
2023-04-19T17:04:44.608Z,13.70
2023-04-19T17:07:12.989Z,10.20
2023-04-19T17:09:41.006Z,9.70
2023-04-19T17:12:09.320Z,7.00
2023-04-19T17:14:39.092Z,7.20
2023-04-19T17:17:07.186Z,7.10
2023-04-19T17:19:36.494Z,6.10
2023-04-19T17:22:05.782Z,6.50
2023-04-19T17:24:34.173Z,5.60
2023-04-19T17:27:02.734Z,6.40
2023-04-19T17:29:31.161Z,5.50
2023-04-19T17:32:00.366Z,11.10
2023-04-19T17:34:28.686Z,18.40
2023-04-19T17:36:56.749Z,10.30
2023-04-19T17:39:27.829Z,5.80
2023-04-19T17:41:56.391Z,4.90
2023-04-19T17:44:24.572Z,6.60
2023-04-19T17:46:52.741Z,7.90
2023-04-19T17:49:21.884Z,6.00
2023-04-19T17:51:50.118Z,6.40
2023-04-19T17:54:19.552Z,5.40
2023-04-19T17:56:49.179Z,5.40
2023-04-19T17:59:17.764Z,5.10
2023-04-19T18:01:46.242Z,6.30
2023-04-19T18:04:18.200Z,4.30
2023-04-19T18:06:47.077Z,5.70
2023-04-19T18:09:17.123Z,4.60
2023-04-19T18:11:47.820Z,6.60
2023-04-19T18:14:15.790Z,7.20
2023-04-19T18:16:44.027Z,6.20
2023-04-19T18:19:12.297Z,4.60
2023-04-19T18:21:40.352Z,5.50
2023-04-19T18:24:08.911Z,4.20
2023-04-19T18:26:40.687Z,3.70
2023-04-19T18:29:09.603Z,4.30
2023-04-19T18:31:37.777Z,4.10
2023-04-19T18:34:05.944Z,3.90
2023-04-19T18:36:34.171Z,5.30
2023-04-19T18:39:02.429Z,3.80
2023-04-19T18:41:30.737Z,4.30
2023-04-19T18:44:31.421Z,4.50
2023-04-19T18:46:47.097Z,4.90
2023-04-19T18:49:15.318Z,4.10
2023-04-19T18:51:43.857Z,3.90
2023-04-19T18:54:12.462Z,4.40
2023-04-19T18:57:18.522Z,4.00
2023-04-19T18:59:29.118Z,6.40
2023-04-19T19:01:57.419Z,5.10
2023-04-19T19:04:39.134Z,4.20
2023-04-19T19:07:27.681Z,6.70
2023-04-19T19:10:10.361Z,4.70
2023-04-19T19:12:46.677Z,4.40
2023-04-19T19:15:15.263Z,5.40
2023-04-19T19:17:43.791Z,9.10
2023-04-19T19:20:12.326Z,9.00
2023-04-19T19:22:40.853Z,11.00
2023-04-19T19:25:09.208Z,13.60
2023-04-19T19:27:38.782Z,7.70
2023-04-19T19:30:07.995Z,11.10
2023-04-19T19:32:37.233Z,8.90
2023-04-19T19:35:08.568Z,9.00
2023-04-19T19:37:37.210Z,5.90
2023-04-19T19:40:06.740Z,6.10
2023-04-19T19:42:35.349Z,4.90
2023-04-19T19:45:04.687Z,4.70
2023-04-19T19:47:35.532Z,4.60
2023-04-19T19:50:48.597Z,5.20
2023-04-19T19:52:53.550Z,5.00
2023-04-19T19:55:22.015Z,4.60
2023-04-19T19:58:23.863Z,5.20
2023-04-19T20:00:46.129Z,4.90
2023-04-19T20:03:28.540Z,4.70
2023-04-19T20:06:35.418Z,4.70
2023-04-19T20:08:53.343Z,5.10
2023-04-19T20:11:21.838Z,4.90
2023-04-19T20:13:50.830Z,4.70
2023-04-19T20:16:19.740Z,5.10
2023-04-19T20:18:49.504Z,4.60
2023-04-19T20:21:19.766Z,5.20
2023-04-19T20:23:47.965Z,5.60
2023-04-19T20:26:16.111Z,4.40
2023-04-19T20:28:44.412Z,4.60
2023-04-19T20:31:12.526Z,5.40
2023-04-19T20:33:40.806Z,4.90
2023-04-19T20:36:09.791Z,4.80
2023-04-19T20:38:38.428Z,4.80
2023-04-19T20:41:06.832Z,5.10
2023-04-19T20:43:35.425Z,4.30
2023-04-19T20:46:03.755Z,4.70
2023-04-19T20:48:32.387Z,5.20
2023-04-19T20:51:00.625Z,4.80
2023-04-19T20:53:29.082Z,4.60
2023-04-19T20:55:57.177Z,5.10
2023-04-19T20:58:25.388Z,5.60
2023-04-19T21:00:53.373Z,5.00
2023-04-19T21:03:22.439Z,5.90
2023-04-19T21:05:51.348Z,5.20
2023-04-19T21:08:19.856Z,4.70
2023-04-19T21:10:48.074Z,5.20
2023-04-19T21:13:17.430Z,5.30
2023-04-19T21:15:45.900Z,6.80
2023-04-19T21:18:14.001Z,5.20
2023-04-19T21:20:42.083Z,5.20
2023-04-19T21:23:10.244Z,5.70
2023-04-19T21:25:38.304Z,4.60
2023-04-19T21:28:06.302Z,5.50
2023-04-19T21:30:38.778Z,5.90
2023-04-19T21:33:07.364Z,5.40
2023-04-19T21:35:35.520Z,5.70
2023-04-19T21:38:03.632Z,4.90
2023-04-19T21:40:31.809Z,6.20
2023-04-19T21:42:59.940Z,5.20
2023-04-19T21:45:28.188Z,5.40
2023-04-19T21:47:56.427Z,6.50
2023-04-19T21:50:24.576Z,5.90
2023-04-19T21:52:52.807Z,8.60
2023-04-19T21:55:21.067Z,8.00
2023-04-19T21:57:50.063Z,10.00
2023-04-19T22:00:18.528Z,7.30
2023-04-19T22:02:46.789Z,5.90
2023-04-19T22:05:15.113Z,7.60
2023-04-19T22:07:45.016Z,6.90
2023-04-19T22:10:13.622Z,6.00
2023-04-19T22:12:55.073Z,6.20
2023-04-19T22:15:26.928Z,5.20
2023-04-19T22:17:55.305Z,6.70
2023-04-19T22:20:27.307Z,6.00
2023-04-19T22:22:56.053Z,7.60
2023-04-19T22:25:23.992Z,5.40
2023-04-19T22:27:52.048Z,4.40
2023-04-19T22:30:20.385Z,6.40
2023-04-19T22:32:48.567Z,5.50
2023-04-19T22:35:16.861Z,7.00
2023-04-19T22:37:45.008Z,4.30
2023-04-19T22:40:13.980Z,4.70
2023-04-19T22:42:42.104Z,4.80
2023-04-19T22:45:10.863Z,5.40
2023-04-19T22:47:39.042Z,5.00
2023-04-19T22:50:09.004Z,5.40
2023-04-19T22:52:37.457Z,4.60
2023-04-19T22:55:07.116Z,5.20
2023-04-19T22:57:35.866Z,4.40
2023-04-19T23:00:05.508Z,4.90
2023-04-19T23:02:34.351Z,5.30
2023-04-19T23:05:02.627Z,5.80
2023-04-19T23:07:31.376Z,5.40
2023-04-19T23:09:59.913Z,4.80
2023-04-19T23:12:31.242Z,5.10
2023-04-19T23:14:59.533Z,5.70
2023-04-19T23:17:27.605Z,4.50
2023-04-19T23:19:55.910Z,5.10
2023-04-19T23:22:24.046Z,5.00
2023-04-19T23:24:52.091Z,6.00
2023-04-19T23:27:20.237Z,6.00
2023-04-19T23:29:48.397Z,5.60
2023-04-19T23:32:18.260Z,5.30
2023-04-19T23:34:46.403Z,5.60
2023-04-19T23:37:14.436Z,5.60
2023-04-19T23:39:42.583Z,5.20
2023-04-19T23:42:10.928Z,5.30
2023-04-19T23:44:39.187Z,5.90
2023-04-19T23:47:07.430Z,4.80
2023-04-19T23:49:35.497Z,4.40
2023-04-19T23:52:03.624Z,4.70
2023-04-19T23:54:31.737Z,5.00
2023-04-19T23:57:00.119Z,5.60
2023-04-19T23:59:28.764Z,5.20
